createdAt,value
2016-06-29T00:00:51.203Z,99.99
2016-06-29T00:01:51.209Z,99.99
2016-06-29T00:02:51.147Z,99.99
2016-06-29T00:03:51.182Z,99.99
2016-06-29T00:04:51.049Z,99.99
2016-06-29T00:05:51.186Z,99.99
2016-06-29T00:06:50.952Z,99.99
2016-06-29T00:07:50.926Z,99.99
2016-06-29T00:08:50.954Z,99.99
2016-06-29T00:09:50.970Z,99.99
2016-06-29T00:10:51.073Z,99.99
2016-06-29T00:11:50.985Z,99.99
2016-06-29T00:12:51.151Z,99.99
2016-06-29T00:13:51.203Z,99.99
2016-06-29T00:14:50.932Z,99.99
2016-06-29T00:15:51.185Z,99.99
2016-06-29T00:16:50.986Z,99.99
2016-06-29T00:17:50.993Z,99.99
2016-06-29T00:18:51.571Z,99.99
2016-06-29T00:19:51.001Z,99.99
2016-06-29T00:20:50.932Z,99.99
2016-06-29T00:21:51.109Z,99.99
2016-06-29T00:22:51.102Z,99.99
2016-06-29T00:23:50.990Z,99.99
2016-06-29T00:24:51.146Z,99.99
2016-06-29T00:25:50.992Z,99.99
2016-06-29T00:26:51.288Z,99.99
2016-06-29T00:39:07.532Z,99.99
2016-06-29T00:40:07.516Z,99.99
2016-06-29T00:41:07.551Z,99.99
2016-06-29T00:42:07.500Z,99.99
2016-06-29T00:43:07.490Z,99.99
2016-06-29T00:44:07.515Z,99.99
2016-06-29T00:45:07.496Z,99.99
2016-06-29T00:46:07.503Z,99.99
2016-06-29T00:47:07.478Z,99.99
2016-06-29T00:48:07.514Z,99.99
2016-06-29T00:49:07.491Z,99.99
2016-06-29T00:50:07.514Z,99.99
2016-06-29T00:51:07.490Z,99.99
2016-06-29T00:52:07.497Z,99.99
2016-06-29T00:53:07.525Z,99.99
2016-06-29T00:54:07.500Z,99.99
2016-06-29T00:55:07.556Z,99.99
2016-06-29T00:56:07.522Z,99.99
2016-06-29T00:57:07.564Z,99.99
2016-06-29T00:58:07.818Z,99.99
2016-06-29T00:59:07.502Z,99.99
2016-06-29T01:00:07.497Z,99.99
2016-06-29T01:01:07.563Z,99.99
2016-06-29T01:02:07.518Z,99.99
2016-06-29T01:03:07.500Z,99.99
2016-06-29T01:04:07.496Z,99.99
2016-06-29T01:05:07.504Z,99.99
2016-06-29T01:06:07.510Z,99.99
2016-06-29T01:19:08.650Z,99.99
2016-06-29T01:19:23.733Z,99.99
2016-06-29T01:20:23.668Z,99.99
2016-06-29T01:21:23.685Z,99.99
2016-06-29T01:22:23.689Z,99.99
2016-06-29T01:23:23.681Z,99.99
2016-06-29T01:24:23.673Z,99.99
2016-06-29T01:25:23.691Z,99.99
2016-06-29T01:26:23.670Z,99.99
2016-06-29T01:27:23.693Z,99.99
2016-06-29T01:28:23.672Z,99.99
2016-06-29T01:29:23.677Z,99.99
2016-06-29T01:30:23.702Z,99.99
2016-06-29T01:31:23.677Z,99.99
2016-06-29T01:32:23.674Z,99.99
2016-06-29T01:33:23.761Z,99.99
2016-06-29T01:34:23.723Z,99.99
2016-06-29T01:35:23.837Z,99.99
2016-06-29T01:36:23.690Z,99.99
2016-06-29T01:37:23.671Z,99.99
2016-06-29T01:38:23.696Z,99.99
2016-06-29T01:39:23.683Z,99.99
2016-06-29T01:40:23.829Z,99.99
2016-06-29T01:41:23.882Z,99.99
2016-06-29T01:42:23.874Z,99.99
2016-06-29T01:43:23.735Z,99.99
2016-06-29T01:44:23.749Z,99.99
2016-06-29T01:45:23.694Z,99.99
2016-06-29T01:46:23.925Z,99.99
2016-06-29T01:47:23.849Z,99.99
2016-06-29T01:48:23.842Z,99.99
2016-06-29T01:49:23.837Z,99.99
2016-06-29T01:50:23.863Z,99.99
2016-06-29T01:51:24.007Z,99.99
2016-06-29T01:52:23.751Z,99.99
2016-06-29T01:53:24.034Z,99.99
2016-06-29T01:54:23.737Z,99.99
2016-06-29T01:55:23.678Z,99.99
2016-06-29T01:56:23.679Z,99.99
2016-06-29T01:57:23.906Z,99.99
2016-06-29T01:58:23.953Z,99.99
2016-06-29T01:59:23.854Z,99.99
2016-06-29T02:00:23.930Z,99.99
2016-06-29T02:01:23.938Z,99.99
2016-06-29T02:02:23.663Z,99.99
2016-06-29T02:03:23.679Z,99.99
2016-06-29T02:04:23.678Z,99.99
2016-06-29T02:05:23.694Z,99.99
2016-06-29T02:06:23.684Z,99.99
2016-06-29T02:07:23.707Z,99.99
2016-06-29T02:08:23.705Z,99.99
2016-06-29T02:09:23.685Z,99.99
2016-06-29T02:10:23.678Z,99.99
2016-06-29T02:11:23.691Z,99.99
2016-06-29T02:12:23.683Z,99.99
2016-06-29T02:13:23.710Z,99.99
2016-06-29T02:14:23.708Z,99.99
2016-06-29T02:15:23.720Z,99.99
2016-06-29T02:16:23.700Z,99.99
2016-06-29T02:17:23.774Z,99.99
2016-06-29T02:18:23.695Z,99.99
2016-06-29T02:19:23.718Z,99.99
2016-06-29T02:20:23.719Z,99.99
2016-06-29T02:21:23.732Z,99.99
2016-06-29T02:22:23.703Z,99.99
2016-06-29T02:23:23.694Z,99.99
2016-06-29T02:24:23.715Z,99.99
2016-06-29T02:25:23.698Z,99.99
2016-06-29T02:26:23.719Z,99.99
2016-06-29T02:27:23.714Z,99.99
2016-06-29T02:28:23.874Z,99.99
2016-06-29T02:29:23.738Z,99.99
2016-06-29T02:30:23.704Z,99.99
2016-06-29T02:31:23.718Z,99.99
2016-06-29T02:32:23.885Z,99.99
2016-06-29T02:33:23.756Z,99.99
2016-06-29T02:34:23.743Z,99.99
2016-06-29T02:35:23.726Z,99.99
2016-06-29T02:36:23.808Z,99.99
2016-06-29T02:37:23.710Z,99.99
2016-06-29T02:38:23.714Z,99.99
2016-06-29T02:39:23.715Z,99.99
2016-06-29T02:40:23.686Z,99.99
2016-06-29T02:41:23.685Z,99.99
2016-06-29T02:42:23.679Z,99.99
2016-06-29T02:43:23.696Z,99.99
2016-06-29T02:44:23.826Z,99.99
2016-06-29T02:45:23.818Z,99.99
2016-06-29T02:46:23.844Z,99.99
2016-06-29T02:47:23.741Z,99.99
2016-06-29T02:48:23.936Z,99.99
2016-06-29T02:49:23.960Z,99.99
2016-06-29T02:50:23.897Z,99.99
2016-06-29T02:51:23.700Z,99.99
2016-06-29T02:52:23.758Z,99.99
2016-06-29T02:53:23.706Z,99.99
2016-06-29T02:54:23.719Z,99.99
2016-06-29T02:55:23.703Z,99.99
2016-06-29T02:56:24.437Z,99.99
2016-06-29T02:57:23.721Z,99.99
2016-06-29T02:58:23.711Z,99.99
2016-06-29T02:59:23.703Z,99.99
2016-06-29T03:00:23.743Z,99.99
2016-06-29T03:01:23.719Z,99.99
2016-06-29T03:02:23.717Z,99.99
2016-06-29T03:03:23.707Z,99.99
2016-06-29T03:04:23.726Z,99.99
2016-06-29T03:05:23.737Z,99.99
2016-06-29T03:06:23.749Z,99.99
2016-06-29T03:07:23.725Z,99.99
2016-06-29T03:08:23.759Z,99.99
2016-06-29T03:09:23.709Z,99.99
2016-06-29T03:10:23.783Z,99.99
2016-06-29T03:11:23.716Z,99.99
2016-06-29T03:12:23.725Z,99.99
2016-06-29T03:13:23.764Z,99.99
2016-06-29T03:14:23.990Z,99.99
2016-06-29T03:15:23.795Z,99.99
2016-06-29T03:16:23.781Z,99.99
2016-06-29T03:17:23.984Z,99.99
2016-06-29T03:18:23.984Z,99.99
2016-06-29T03:19:23.963Z,99.99
2016-06-29T03:20:23.975Z,99.99
2016-06-29T03:21:23.760Z,99.99
2016-06-29T03:22:24.170Z,99.99
2016-06-29T03:23:24.182Z,99.99
2016-06-29T03:24:24.071Z,99.99
2016-06-29T03:25:27.100Z,99.99
2016-06-29T03:26:23.984Z,99.99
2016-06-29T03:27:23.850Z,99.99
2016-06-29T03:28:24.003Z,99.99
2016-06-29T03:29:23.720Z,99.99
2016-06-29T03:41:52.578Z,99.99
2016-06-29T03:51:45.214Z,99.99
2016-06-29T03:55:52.087Z,99.99
2016-06-29T03:56:08.488Z,99.99
2016-06-29T03:58:56.417Z,99.99
2016-06-29T04:06:10.499Z,99.99
2016-06-29T04:06:28.374Z,99.99
2016-06-29T04:07:29.353Z,99.99
2016-06-29T04:08:45.788Z,99.99
2016-06-29T04:09:27.578Z,99.99
2016-06-29T04:10:27.656Z,99.99
2016-06-29T04:11:27.799Z,99.99
2016-06-29T04:12:27.482Z,99.99
2016-06-29T04:13:27.446Z,99.99
2016-06-29T04:14:27.643Z,99.99
2016-06-29T04:15:37.686Z,99.99
2016-06-29T04:16:27.882Z,99.99
2016-06-29T04:17:27.675Z,99.99
2016-06-29T04:18:30.964Z,99.99
2016-06-29T04:19:27.627Z,99.99
2016-06-29T04:20:46.685Z,99.99
2016-06-29T04:21:56.510Z,99.99
2016-06-29T04:22:44.896Z,99.99
2016-06-29T04:23:27.535Z,99.99
2016-06-29T04:24:32.536Z,99.99
2016-06-29T04:25:27.935Z,99.99
2016-06-29T04:26:29.570Z,99.99
2016-06-29T04:27:27.670Z,99.99
2016-06-29T04:28:27.418Z,99.99
2016-06-29T04:29:37.269Z,99.99
2016-06-29T04:30:27.489Z,99.99
2016-06-29T04:31:27.448Z,99.99
2016-06-29T04:32:27.752Z,99.99
2016-06-29T04:33:27.599Z,99.99
2016-06-29T04:34:27.806Z,99.99
2016-06-29T04:35:27.639Z,99.99
2016-06-29T04:37:33.705Z,99.99
2016-06-29T04:37:49.539Z,99.99
2016-06-29T04:38:49.723Z,99.99
2016-06-29T04:39:49.722Z,99.99
2016-06-29T04:40:50.679Z,99.99
2016-06-29T04:41:49.627Z,99.99
2016-06-29T04:42:49.698Z,99.99
2016-06-29T04:43:50.323Z,99.99
2016-06-29T04:44:49.997Z,99.92
2016-06-29T04:45:56.789Z,99.01
2016-06-29T04:47:04.246Z,95.84
2016-06-29T04:47:49.863Z,94.87
2016-06-29T04:57:06.841Z,92.18
2016-06-29T04:58:06.673Z,90.78
2016-06-29T04:59:06.655Z,89.92
2016-06-29T05:00:06.760Z,89.92
2016-06-29T05:01:06.741Z,89
2016-06-29T05:02:06.805Z,87.26
2016-06-29T05:03:06.857Z,87.21
2016-06-29T05:04:06.761Z,88.46
2016-06-29T05:05:06.710Z,89.96
2016-06-29T05:06:06.779Z,90.2
2016-06-29T05:07:06.651Z,92.08
2016-06-29T05:08:06.660Z,92.08
2016-06-29T05:09:06.615Z,94.15
2016-06-29T05:10:06.657Z,96.42
2016-06-29T05:11:06.719Z,98.77
2016-06-29T05:12:06.828Z,99.99
2016-06-29T05:13:06.784Z,99.99
2016-06-29T05:14:06.745Z,99.99
2016-06-29T05:15:06.754Z,99.99
2016-06-29T05:16:06.665Z,99.99
2016-06-29T05:17:06.748Z,99.99
2016-06-29T05:18:06.706Z,99.99
2016-06-29T05:19:06.664Z,99.99
2016-06-29T05:20:06.722Z,99.99
2016-06-29T05:21:06.815Z,99.99
2016-06-29T05:22:06.635Z,99.99
2016-06-29T05:23:06.658Z,99.99
2016-06-29T05:24:06.801Z,99.99
2016-06-29T05:25:06.821Z,99.99
2016-06-29T05:26:06.721Z,99.99
2016-06-29T05:27:07.868Z,99.58
2016-06-29T05:28:06.651Z,99.15
2016-06-29T05:29:06.633Z,99.99
2016-06-29T05:30:06.794Z,99.99
2016-06-29T05:31:06.662Z,99.99
2016-06-29T05:44:07.304Z,99.99
2016-06-29T05:44:23.009Z,86.05
2016-06-29T05:45:22.701Z,85.09
2016-06-29T05:46:22.683Z,86.63
2016-06-29T05:47:22.694Z,88.67
2016-06-29T05:48:22.770Z,89.43
2016-06-29T05:49:22.787Z,90.73
2016-06-29T05:50:22.711Z,91.51
2016-06-29T05:51:22.671Z,92.43
2016-06-29T05:52:22.677Z,91.85
2016-06-29T05:53:22.710Z,92.23
2016-06-29T05:54:22.692Z,91.56
2016-06-29T05:55:22.747Z,93.34
2016-06-29T05:56:22.669Z,93.68
2016-06-29T05:57:22.696Z,94.26
2016-06-29T05:58:22.707Z,93.87
2016-06-29T05:59:22.688Z,95.7
2016-06-29T06:00:22.865Z,95.94
2016-06-29T06:01:22.682Z,96.42
2016-06-29T06:02:22.694Z,96.8
2016-06-29T06:03:22.857Z,97.66
2016-06-29T06:04:22.700Z,97.24
2016-06-29T06:05:22.709Z,97.42
2016-06-29T06:06:22.808Z,97.33
2016-06-29T06:07:23.330Z,95.31
2016-06-29T06:08:22.746Z,95.41
2016-06-29T06:09:22.685Z,96.13
2016-06-29T06:10:22.688Z,95.75
2016-06-29T06:11:23.260Z,95.84
2016-06-29T06:12:22.694Z,95.84
2016-06-29T06:13:22.723Z,96.13
2016-06-29T06:14:22.738Z,96.51
2016-06-29T06:15:22.695Z,96.13
2016-06-29T06:16:22.722Z,96.13
2016-06-29T06:17:22.723Z,96.42
2016-06-29T06:18:22.714Z,94.98
2016-06-29T06:19:22.878Z,94.21
2016-06-29T06:20:22.727Z,93.49
2016-06-29T06:21:23.458Z,92.72
2016-06-29T06:22:22.721Z,93.1
2016-06-29T06:23:22.769Z,91.76
2016-06-29T06:24:22.790Z,91.76
2016-06-29T06:25:22.996Z,92.14
2016-06-29T06:26:22.725Z,91.66
2016-06-29T06:27:28.466Z,90.61
2016-06-29T06:28:27.267Z,90.61
2016-06-29T06:29:24.172Z,91.28
2016-06-29T06:30:23.355Z,90.84
2016-06-29T06:31:25.562Z,90.37
2016-06-29T06:32:24.092Z,90.37
2016-06-29T06:33:26.914Z,92.53
2016-06-29T06:34:22.792Z,92.58
2016-06-29T06:35:22.973Z,92.58
2016-06-29T06:36:25.126Z,92.48
2016-06-29T06:37:22.728Z,93.63
2016-06-29T06:38:24.720Z,91.91
2016-06-29T06:39:22.813Z,91.52
2016-06-29T06:40:22.890Z,92.19
2016-06-29T06:41:22.736Z,93.06
2016-06-29T06:42:23.030Z,92.72
2016-06-29T06:43:22.810Z,93.21
2016-06-29T06:44:22.718Z,93.78
2016-06-29T06:45:22.727Z,93.68
2016-06-29T06:46:22.732Z,93.73
2016-06-29T06:47:22.727Z,93.25
2016-06-29T06:48:22.705Z,93.35
2016-06-29T06:49:22.830Z,92.77
2016-06-29T06:50:22.850Z,91.81
2016-06-29T06:51:22.708Z,91.42
2016-06-29T06:52:22.733Z,91.81
2016-06-29T06:53:22.720Z,91.33
2016-06-29T06:54:22.891Z,91.52
2016-06-29T07:07:23.351Z,90.85
2016-06-29T07:07:38.476Z,94.02
2016-06-29T07:08:38.425Z,94.02
2016-06-29T07:09:38.455Z,93.92
2016-06-29T07:10:38.455Z,95.12
2016-06-29T07:11:38.416Z,95.89
2016-06-29T07:12:43.868Z,96.18
2016-06-29T07:13:38.435Z,95.6
2016-06-29T07:14:38.571Z,96.18
2016-06-29T07:15:38.414Z,94.74
2016-06-29T07:16:41.596Z,94.74
2016-06-29T07:17:38.798Z,94.45
2016-06-29T07:18:40.107Z,93.78
2016-06-29T07:19:39.472Z,93.59
2016-06-29T07:20:38.409Z,93.01
2016-06-29T07:21:38.439Z,93.49
2016-06-29T07:22:38.519Z,93.59
2016-06-29T07:23:38.428Z,93.88
2016-06-29T07:24:38.446Z,93.78
2016-06-29T07:25:38.459Z,94.84
2016-06-29T07:26:38.737Z,94.26
2016-06-29T07:27:38.444Z,93.59
2016-06-29T07:28:38.421Z,93.97
2016-06-29T07:29:38.485Z,93.97
2016-06-29T07:30:39.926Z,93.68
2016-06-29T07:31:38.473Z,94.07
2016-06-29T07:32:39.702Z,95.03
2016-06-29T07:33:38.672Z,93.78
2016-06-29T07:34:38.523Z,93.49
2016-06-29T07:47:39.482Z,93.97
2016-06-29T07:48:06.675Z,95.6
2016-06-29T07:49:05.534Z,95.6
2016-06-29T07:50:05.450Z,95.98
2016-06-29T07:51:05.408Z,95.6
2016-06-29T07:52:07.505Z,95.41
2016-06-29T07:53:05.578Z,95.41
2016-06-29T07:54:07.214Z,95.98
2016-06-29T07:55:05.401Z,95.41
2016-06-29T07:56:05.482Z,96.27
2016-06-29T08:08:22.353Z,96.37
2016-06-29T08:09:22.207Z,96.42
2016-06-29T08:10:22.243Z,96.22
2016-06-29T08:11:22.196Z,96.99
2016-06-29T08:12:22.219Z,97.28
2016-06-29T08:13:22.222Z,95.84
2016-06-29T08:14:22.444Z,95.51
2016-06-29T08:15:22.415Z,95.31
2016-06-29T08:16:22.296Z,95.7
2016-06-29T08:17:22.261Z,95.75
2016-06-29T08:18:22.292Z,96.22
2016-06-29T08:19:24.491Z,96.18
2016-06-29T08:20:22.315Z,95.56
2016-06-29T08:21:22.215Z,96.42
2016-06-29T08:23:31.527Z,96.42
2016-06-29T08:24:31.504Z,97.09
2016-06-29T08:25:31.479Z,96.32
2016-06-29T08:26:31.477Z,96.27
2016-06-29T08:27:31.462Z,95.94
2016-06-29T08:28:31.473Z,95.98
2016-06-29T08:29:31.474Z,95.98
2016-06-29T08:30:31.885Z,95.79
2016-06-29T08:31:31.460Z,96.08
2016-06-29T08:32:31.574Z,95.89
2016-06-29T08:33:31.457Z,95.6
2016-06-29T08:34:31.450Z,94.74
2016-06-29T08:35:31.536Z,93.97
2016-06-29T08:36:31.445Z,93.49
2016-06-29T08:37:31.434Z,92.77
2016-06-29T08:38:31.487Z,91.91
2016-06-29T08:39:31.547Z,91.57
2016-06-29T08:40:31.446Z,90.22
2016-06-29T08:41:32.312Z,89.4
2016-06-29T08:42:31.484Z,89.6
2016-06-29T08:43:31.541Z,89.98
2016-06-29T08:44:31.476Z,89.4
2016-06-29T08:45:31.964Z,89.6
2016-06-29T08:46:31.468Z,88.73
2016-06-29T08:47:31.472Z,89.22
2016-06-29T08:48:31.465Z,89.22
2016-06-29T08:49:32.966Z,88.54
2016-06-29T08:50:31.918Z,88.45
2016-06-29T08:51:31.457Z,87.68
2016-06-29T08:52:31.473Z,87.29
2016-06-29T08:53:31.499Z,88.25
2016-06-29T08:54:32.868Z,87.87
2016-06-29T08:55:31.520Z,88.35
2016-06-29T08:56:32.744Z,88.45
2016-06-29T08:57:34.983Z,89.31
2016-06-29T08:58:49.057Z,89.5
2016-06-29T08:59:31.826Z,89.12
2016-06-29T09:00:31.497Z,89.17
2016-06-29T09:01:31.532Z,89.36
2016-06-29T09:02:42.286Z,87.68
2016-06-29T09:03:31.801Z,85.61
2016-06-29T09:04:48.551Z,82.19
2016-06-29T09:05:44.042Z,81.56
2016-06-29T09:06:31.654Z,80.06
2016-06-29T09:07:32.880Z,76.92
2016-06-29T09:08:37.472Z,74.05
2016-06-29T09:09:31.639Z,73.99
2016-06-29T09:10:31.646Z,74.18
2016-06-29T09:11:58.027Z,76.45
2016-06-29T09:12:31.701Z,76.45
2016-06-29T09:13:31.719Z,78.63
2016-06-29T09:14:31.741Z,80.43
2016-06-29T09:15:31.718Z,80.83
2016-06-29T09:16:32.165Z,82.21
2016-06-29T09:17:49.292Z,82.94
2016-06-29T09:18:31.513Z,83.25
2016-06-29T09:19:32.432Z,83.11
2016-06-29T09:20:32.129Z,83.4
2016-06-29T09:21:33.885Z,83.92
2016-06-29T09:22:33.593Z,84.69
2016-06-29T09:23:31.905Z,85.71
2016-06-29T09:24:34.577Z,85.8
2016-06-29T09:25:33.741Z,86.57
2016-06-29T09:26:32.519Z,86.28
2016-06-29T09:27:31.538Z,86.05
2016-06-29T09:28:31.576Z,87.01
2016-06-29T09:29:31.478Z,87.19
2016-06-29T09:30:31.480Z,87.49
2016-06-29T09:31:31.490Z,88.31
2016-06-29T09:32:31.509Z,87.92
2016-06-29T09:33:31.477Z,88.69
2016-06-29T09:34:31.526Z,88.16
2016-06-29T09:35:31.712Z,87.49
2016-06-29T09:36:31.593Z,86.72
2016-06-29T09:37:31.658Z,85.99
2016-06-29T09:38:31.486Z,84.74
2016-06-29T09:39:31.529Z,84.55
2016-06-29T09:40:31.802Z,83.25
2016-06-29T09:41:31.564Z,84.11
2016-06-29T09:42:31.478Z,83.78
2016-06-29T09:43:31.514Z,84.36
2016-06-29T09:44:31.486Z,83.87
2016-06-29T09:45:31.555Z,84.45
2016-06-29T09:46:31.513Z,84.45
2016-06-29T09:47:31.506Z,85.22
2016-06-29T09:48:31.661Z,85.61
2016-06-29T09:49:31.514Z,85.8
2016-06-29T09:50:31.525Z,86.43
2016-06-29T09:51:31.569Z,86.14
2016-06-29T09:52:31.617Z,87.01
2016-06-29T09:53:32.514Z,86.14
2016-06-29T09:54:31.524Z,86.33
2016-06-29T09:55:31.529Z,86.62
2016-06-29T09:56:31.568Z,87.15
2016-06-29T09:57:31.496Z,88.02
2016-06-29T09:58:31.510Z,87.92
2016-06-29T09:59:31.885Z,88.35
2016-06-29T10:00:31.665Z,88.16
2016-06-29T10:01:31.687Z,90.46
2016-06-29T10:02:40.383Z,92.77
2016-06-29T10:03:34.094Z,94.02
2016-06-29T10:04:31.978Z,95.84
2016-06-29T10:05:31.522Z,98.57
2016-06-29T10:06:31.545Z,99.73
2016-06-29T10:07:32.799Z,99.99
2016-06-29T10:08:31.527Z,99.99
2016-06-29T10:09:33.025Z,99.99
2016-06-29T10:10:31.758Z,99.99
2016-06-29T10:11:31.741Z,99.99
2016-06-29T10:12:32.398Z,99.99
2016-06-29T10:13:34.852Z,99.99
2016-06-29T10:14:31.510Z,99.63
2016-06-29T10:15:31.840Z,99.05
2016-06-29T10:16:32.024Z,98.43
2016-06-29T10:17:31.759Z,96.61
2016-06-29T10:18:31.653Z,96.37
2016-06-29T10:19:32.065Z,93.92
2016-06-29T10:20:31.523Z,91.66
2016-06-29T10:21:32.161Z,90.07
2016-06-29T10:22:31.640Z,90.17
2016-06-29T10:23:31.523Z,89.78
2016-06-29T10:24:31.640Z,88.92
2016-06-29T10:25:31.548Z,87.57
2016-06-29T10:26:31.642Z,85.88
2016-06-29T10:27:32.607Z,86.18
2016-06-29T10:28:34.756Z,85.78
2016-06-29T10:29:31.510Z,84.92
2016-06-29T10:30:31.553Z,85.25
2016-06-29T10:31:31.908Z,84.39
2016-06-29T10:32:31.551Z,84.77
2016-06-29T10:33:31.570Z,83.42
2016-06-29T10:34:31.659Z,83.04
2016-06-29T10:35:33.723Z,82.98
2016-06-29T10:36:32.774Z,81.83
2016-06-29T10:37:31.603Z,80.44
2016-06-29T10:40:18.855Z,80.58
2016-06-29T10:40:35.991Z,78.69
2016-06-29T10:41:47.817Z,79.46
2016-06-29T10:42:36.064Z,81.54
2016-06-29T10:43:36.383Z,81.6
2016-06-29T10:44:36.162Z,80.83
2016-06-29T10:45:36.001Z,80
2016-06-29T10:46:36.131Z,79.46
2016-06-29T10:47:36.139Z,77.28
2016-06-29T10:48:36.053Z,78.54
2016-06-29T10:49:36.025Z,79.52
2016-06-29T10:50:35.975Z,80
2016-06-29T10:51:36.423Z,80.35
2016-06-29T10:52:35.989Z,80.73
2016-06-29T10:53:35.985Z,81.4
2016-06-29T10:54:36.091Z,81.5
2016-06-29T10:55:38.677Z,81.02
2016-06-29T10:56:40.145Z,81.21
2016-06-29T10:57:36.030Z,80.83
2016-06-29T10:58:36.068Z,81.4
2016-06-29T10:59:35.974Z,80.54
2016-06-29T11:00:36.222Z,79.96
2016-06-29T11:01:35.977Z,79.86
2016-06-29T11:02:36.004Z,79.19
2016-06-29T11:03:36.195Z,79
2016-06-29T11:04:36.033Z,78.23
2016-06-29T11:05:37.179Z,77.4
2016-06-29T11:06:35.987Z,76.38
2016-06-29T11:07:36.046Z,75.23
2016-06-29T11:08:36.000Z,76.18
2016-06-29T11:09:36.052Z,76.28
2016-06-29T11:10:36.124Z,76.15
2016-06-29T11:11:37.321Z,76.34
2016-06-29T11:12:35.982Z,76.92
2016-06-29T11:13:36.050Z,76.53
2016-06-29T11:14:36.070Z,76.73
2016-06-29T11:15:36.021Z,76.34
2016-06-29T11:16:36.001Z,76.92
2016-06-29T11:17:36.194Z,78.13
2016-06-29T11:18:35.997Z,78.71
2016-06-29T11:19:36.038Z,77.78
2016-06-29T11:20:36.017Z,77.56
2016-06-29T11:21:36.163Z,76.88
2016-06-29T11:22:36.315Z,76.48
2016-06-29T11:23:36.033Z,73.72
2016-06-29T11:24:36.029Z,71.86
2016-06-29T11:25:36.027Z,72.25
2016-06-29T11:26:36.515Z,73.79
2016-06-29T11:27:36.114Z,75.65
2016-06-29T11:28:38.766Z,74.07
2016-06-29T11:29:37.339Z,73.91
2016-06-29T11:30:36.262Z,74.01
2016-06-29T11:31:36.026Z,75.32
2016-06-29T11:32:36.296Z,76.53
2016-06-29T11:33:36.038Z,75.86
2016-06-29T11:34:36.029Z,76.44
2016-06-29T11:35:36.130Z,76.59
2016-06-29T11:36:36.465Z,78.03
2016-06-29T11:37:36.058Z,76.4
2016-06-29T11:49:52.010Z,71.34
2016-06-29T11:50:51.978Z,72.6
2016-06-29T11:51:52.012Z,72.66
2016-06-29T11:52:51.988Z,73.14
2016-06-29T11:53:52.091Z,74.3
2016-06-29T11:54:52.054Z,74.07
2016-06-29T11:55:51.958Z,72.95
2016-06-29T11:56:51.989Z,73.72
2016-06-29T11:57:52.109Z,73.58
2016-06-29T11:58:52.211Z,73.43
2016-06-29T11:59:51.980Z,73.39
2016-06-29T12:00:52.066Z,73.62
2016-06-29T12:01:51.970Z,72.66
2016-06-29T12:02:51.982Z,73.82
2016-06-29T12:03:52.098Z,73.49
2016-06-29T12:04:52.006Z,74.01
2016-06-29T12:05:52.014Z,73.97
2016-06-29T12:06:52.058Z,74.36
2016-06-29T12:07:51.969Z,73.97
2016-06-29T12:08:51.963Z,73.3
2016-06-29T12:09:51.958Z,74.07
2016-06-29T12:10:51.966Z,73.97
2016-06-29T12:11:51.996Z,73.78
2016-06-29T12:12:51.986Z,73.53
2016-06-29T12:13:52.773Z,72.95
2016-06-29T12:14:52.019Z,72.66
2016-06-29T12:15:51.963Z,73.58
2016-06-29T12:16:51.982Z,73.39
2016-06-29T12:17:51.981Z,73.01
2016-06-29T12:18:52.014Z,73.97
2016-06-29T12:19:51.997Z,73.58
2016-06-29T12:20:52.007Z,72.91
2016-06-29T12:21:51.997Z,71.31
2016-06-29T12:22:52.796Z,68.87
2016-06-29T12:23:51.970Z,67.11
2016-06-29T12:24:51.968Z,67.72
2016-06-29T12:25:52.003Z,67.69
2016-06-29T12:26:51.962Z,67.97
2016-06-29T12:27:52.145Z,64.05
2016-06-29T12:28:52.091Z,63.14
2016-06-29T12:29:52.400Z,63.14
2016-06-29T12:30:51.979Z,62.85
2016-06-29T12:31:52.033Z,64.4
2016-06-29T12:32:51.985Z,65.14
2016-06-29T12:33:52.042Z,63.73
2016-06-29T12:34:52.207Z,61.76
2016-06-29T12:35:52.034Z,60.75
2016-06-29T12:36:53.701Z,60.82
2016-06-29T12:37:53.739Z,61.89
2016-06-29T12:38:52.013Z,61.92
2016-06-29T12:39:52.023Z,61.86
2016-06-29T12:40:52.237Z,60.63
2016-06-29T12:41:52.504Z,60.47
2016-06-29T12:51:08.488Z,55.05
2016-06-29T12:52:08.563Z,54.05
2016-06-29T12:53:08.438Z,54.24
2016-06-29T12:54:08.506Z,54.6
2016-06-29T12:55:08.417Z,54.6
2016-06-29T12:56:08.717Z,55.64
2016-06-29T12:57:08.442Z,57.59
2016-06-29T12:58:08.566Z,58.63
2016-06-29T13:10:29.206Z,58.6
2016-06-29T13:11:25.076Z,57.99
2016-06-29T13:12:24.846Z,56.28
2016-06-29T13:13:24.807Z,56.88
2016-06-29T13:14:24.832Z,58.5
2016-06-29T13:15:25.017Z,58.93
2016-06-29T13:16:24.782Z,59.51
2016-06-29T13:17:24.814Z,58.06
2016-06-29T13:18:25.482Z,58.54
2016-06-29T13:19:25.535Z,60.73
2016-06-29T13:20:25.034Z,60.22
2016-06-29T13:21:24.782Z,61.06
2016-06-29T13:22:25.801Z,61.64
2016-06-29T13:23:24.998Z,60.86
2016-06-29T13:24:24.891Z,60.83
2016-06-29T13:25:25.020Z,60.32
2016-06-29T13:26:24.770Z,59.23
2016-06-29T13:27:24.847Z,58
2016-06-29T13:28:24.768Z,56.32
2016-06-29T13:29:25.117Z,54.53
2016-06-29T13:30:24.896Z,54.66
2016-06-29T13:42:41.428Z,56.47
2016-06-29T13:43:41.430Z,58.7
2016-06-29T13:44:41.410Z,59.16
2016-06-29T13:45:41.358Z,56.07
2016-06-29T13:46:41.362Z,56.2
2016-06-29T13:47:41.416Z,54.39
2016-06-29T13:48:42.339Z,53.38
2016-06-29T13:49:51.803Z,51.95
2016-06-29T13:50:41.354Z,52.24
2016-06-29T13:51:41.459Z,51.59
2016-06-29T13:52:41.439Z,52.14
2016-06-29T13:53:41.439Z,52.61
2016-06-29T13:54:41.386Z,53.47
2016-06-29T13:55:42.218Z,53.16
2016-06-29T13:56:41.355Z,53.83
2016-06-29T13:57:41.349Z,52.58
2016-06-29T13:58:41.514Z,52.7
2016-06-29T13:59:41.499Z,54.53
2016-06-29T14:00:41.338Z,54.9
2016-06-29T14:01:41.437Z,55.26
2016-06-29T14:02:41.811Z,54.49
2016-06-29T14:03:41.357Z,54
2016-06-29T14:04:41.996Z,54.19
2016-06-29T14:05:42.587Z,55.26
2016-06-29T14:06:41.382Z,54.58
2016-06-29T14:07:41.432Z,55.4
2016-06-29T14:08:41.362Z,57.23
2016-06-29T14:09:41.405Z,57.46
2016-06-29T14:10:41.395Z,57.75
2016-06-29T14:11:41.443Z,57.75
2016-06-29T14:12:41.382Z,58.42
2016-06-29T14:13:41.615Z,58.52
2016-06-29T14:14:41.416Z,59.55
2016-06-29T14:15:41.950Z,59.48
2016-06-29T14:16:41.415Z,58.62
2016-06-29T14:17:42.086Z,59.3
2016-06-29T14:18:41.394Z,59.48
2016-06-29T14:19:41.465Z,59.2
2016-06-29T14:20:41.513Z,58.36
2016-06-29T14:21:41.385Z,59.03
2016-06-29T14:22:41.431Z,60
2016-06-29T14:31:59.221Z,60.28
2016-06-29T14:32:59.426Z,60.13
2016-06-29T14:33:59.151Z,60.13
2016-06-29T14:34:59.222Z,60.61
2016-06-29T14:35:59.219Z,60.64
2016-06-29T14:36:59.298Z,59.27
2016-06-29T14:37:59.341Z,59.3
2016-06-29T14:38:59.940Z,58.91
2016-06-29T14:39:59.219Z,57.56
2016-06-29T14:40:59.239Z,57.78
2016-06-29T14:41:59.157Z,56.81
2016-06-29T14:42:59.186Z,57.2
2016-06-29T14:43:59.158Z,57.39
2016-06-29T14:44:59.341Z,57.2
2016-06-29T14:46:00.582Z,57.39
2016-06-29T14:46:59.255Z,57.1
2016-06-29T14:47:59.334Z,56.4
2016-06-29T14:48:59.230Z,56.59
2016-06-29T14:49:59.223Z,57.14
2016-06-29T14:50:59.241Z,57.43
2016-06-29T14:51:59.376Z,56.76
2016-06-29T14:53:02.948Z,56.85
2016-06-29T14:53:59.665Z,57.62
2016-06-29T14:54:59.193Z,58.3
2016-06-29T14:55:59.577Z,57.82
2016-06-29T14:56:59.663Z,58.69
2016-06-29T14:57:59.208Z,58.2
2016-06-29T14:58:59.421Z,57.62
2016-06-29T14:59:59.816Z,57.53
2016-06-29T15:00:59.221Z,56.85
2016-06-29T15:01:59.183Z,56.4
2016-06-29T15:02:59.395Z,56.4
2016-06-29T15:03:59.202Z,57.75
2016-06-29T15:04:59.379Z,57.46
2016-06-29T15:05:59.271Z,58.14
2016-06-29T15:06:59.178Z,58.91
2016-06-29T15:08:00.672Z,59.1
2016-06-29T15:08:59.227Z,59.3
2016-06-29T15:09:59.218Z,59.78
2016-06-29T15:10:59.341Z,59.87
2016-06-29T15:11:59.254Z,59.3
2016-06-29T15:12:59.270Z,58.42
2016-06-29T15:13:59.250Z,57.37
2016-06-29T15:14:59.345Z,57.46
2016-06-29T15:15:59.210Z,56.69
2016-06-29T15:16:59.361Z,56.88
2016-06-29T15:17:59.273Z,56.4
2016-06-29T15:18:59.349Z,56.85
2016-06-29T15:19:59.642Z,57.82
2016-06-29T15:20:59.238Z,58.69
2016-06-29T15:21:59.378Z,58.11
2016-06-29T15:22:59.539Z,58.59
2016-06-29T15:23:59.215Z,58.49
2016-06-29T15:24:59.291Z,58.49
2016-06-29T15:25:59.355Z,60.32
2016-06-29T15:26:59.499Z,59.17
2016-06-29T15:27:59.735Z,58.23
2016-06-29T15:28:59.210Z,57.85
2016-06-29T15:29:59.213Z,57.07
2016-06-29T15:30:59.385Z,57.65
2016-06-29T15:31:59.251Z,57.37
2016-06-29T15:32:59.258Z,56.49
2016-06-29T15:33:59.215Z,56.98
2016-06-29T15:34:59.232Z,56.49